Latest Weather Observations for Horsley Park

IDN60801

Issued at 9:22 pm EST Wednesday 5 August 2020 (issued every 10 minutes, with the page automatically refreshed every 10 minutes)

About weather observations | Map of weather stations | Latest weather observations for NSW | Other Formats
Station Details ID: 067119 Name: HORSLEY PARK EQUESTRIAN CENTRE AWS Lat: -33.85 Lon: 150.86 Height: 100.0 m
Data from the previous 72 hours. | See also: Recent months at Horsley Park
Date/Time
EST
Temp
°C
App
Temp
°C
Dew
Point
°C
Rel
Hum
%
Delta-T
°C
Wind Press
QNH
hPa
Press
MSL
hPa
Rain since
9am
mm
Dir  Spd
km/h
Gust
km/h
Spd
kts
Gust
kts
05/09:00pm 4.9 2.1 -3.6 54 3.0 WNW 2 4 1 2 - - 0.0
05/08:30pm 5.3 2.5 -3.7 52 3.1 W 2 11 1 6 - - 0.0
05/08:00pm 5.6 2.3 -4.8 47 3.5 WNW 4 6 2 3 - - 0.0
05/07:30pm 7.0 4.0 -5.0 42 4.1 NNW 2 4 1 2 - - 0.0
05/07:00pm 8.7 5.6 -5.9 35 5.0 N 2 6 1 3 - - 0.0
05/06:30pm 10.4 6.6 -6.0 31 5.8 W 6 11 3 6 - - 0.0
05/06:00pm 12.0 7.5 -6.9 26 6.7 WSW 9 17 5 9 - - 0.0
05/05:30pm 13.0 8.1 -7.1 24 7.1 WSW 11 19 6 10 - - 0.0
05/05:00pm 13.9 9.0 -7.4 22 7.6 W 11 20 6 11 - - 0.0
05/04:30pm 15.6 11.1 -7.2 20 8.3 WSW 9 15 5 8 - - 0.0
05/04:00pm 16.0 10.7 -7.6 19 8.6 WSW 13 24 7 13 - - 0.0
05/03:30pm 16.4 10.7 -7.9 18 8.8 W 15 30 8 16 - - 0.0
05/03:00pm 16.9 13.5 -1.7 28 7.8 WNW 6 11 3 6 - - 0.0
05/02:30pm 16.4 12.5 -1.7 29 7.5 NW 9 17 5 9 - - 0.0
05/02:00pm 16.2 11.9 -1.4 30 7.3 WNW 11 19 6 10 - - 0.0
05/01:30pm 15.8 11.4 -2.2 29 7.3 WNW 11 20 6 11 - - 0.0
05/01:00pm 15.5 10.8 -1.5 31 7.0 NW 13 24 7 13 - - 0.0
05/12:30pm 15.3 10.7 -0.9 33 6.8 W 13 22 7 12 - - 0.0
05/12:00pm 14.0 10.5 -1.6 34 6.3 NW 7 15 4 8 - - 0.0
05/11:30am 12.8 8.6 -3.5 32 6.3 WNW 9 19 5 10 - - 0.0
05/11:00am 12.4 7.9 -3.0 34 6.0 WNW 11 17 6 9 - - 0.0
05/10:30am 12.5 9.4 0.3 43 5.1 N 6 13 3 7 - - 0.0
05/10:00am 11.3 7.9 -0.8 43 4.9 N 7 15 4 8 - - 0.0
05/09:30am 10.7 7.3 -0.4 46 4.5 NNW 7 13 4 7 - - 0.0
05/09:00am 9.6 6.5 0.0 51 3.9 N 6 11 3 6 - - 0.0
05/08:30am 7.9 4.1 -0.6 55 3.3 NNW 9 15 5 8 - - 0.0
05/08:00am 6.2 2.7 -1.4 58 2.8 NNW 7 13 4 7 - - 0.0
05/07:30am 5.0 1.0 -2.1 60 2.6 NNW 9 17 5 9 - - 0.0
05/07:00am 4.6 0.9 -2.5 60 2.5 NW 7 13 4 7 - - 0.0
05/06:30am 4.6 0.5 -2.9 58 2.7 NNW 9 15 5 8 - - 0.0
05/06:00am 4.9 1.2 -2.7 58 2.7 NW 7 13 4 7 - - 0.0
05/05:30am 4.4 0.9 -2.9 59 2.6 NW 6 9 3 5 - - 0.0
05/05:00am 4.4 0.7 -2.7 60 2.5 WNW 7 13 4 7 - - 0.0
05/04:30am 4.4 0.8 -3.4 57 2.7 NW 6 7 3 4 - - 0.0
05/04:00am 5.1 1.5 -3.7 53 3.1 WNW 6 9 3 5 - - 0.0
05/03:30am 5.8 2.1 -3.3 52 3.2 WNW 7 13 4 7 - - 0.0
05/03:00am 6.2 2.1 -3.4 50 3.4 W 9 15 5 8 - - 0.0
05/02:30am 6.8 2.7 -3.1 49 3.6 W 9 15 5 8 - - 0.0
05/02:00am 6.3 2.5 -3.6 49 3.5 WSW 7 13 4 7 - - 0.0
05/01:30am 6.3 2.4 -4.2 47 3.7 SSW 7 11 4 6 - - 0.0
05/01:00am 7.5 3.2 -4.6 42 4.3 SW 9 15 5 8 - - 0.0
05/12:30am 8.2 2.4 -4.6 40 4.5 WSW 17 26 9 14 - - 0.0
05/12:00am 8.1 2.8 -3.7 43 4.3 SSW 15 24 8 13 - - 0.0
 
Date/Time
EST
Temp
°C
App
Temp
°C
Dew
Point
°C
Rel
Hum
%
Delta-T
°C
Wind Press
QNH
hPa
Press
MSL
hPa
Rain since
9am
mm
Dir  Spd
km/h
Gust
km/h
Spd
kts
Gust
kts
04/11:30pm 8.3 3.4 -3.2 44 4.2 SSW 13 20 7 11 - - 0.0
04/11:00pm 9.0 3.4 -2.9 43 4.4 SSW 17 24 9 13 - - 0.0
04/10:30pm 9.4 3.8 -2.8 42 4.6 SW 17 26 9 14 - - 0.0
04/10:00pm 10.1 4.2 -2.5 41 4.8 SW 19 28 10 15 - - 0.0
04/09:30pm 10.5 5.7 -2.5 40 5.0 SW 13 22 7 12 - - 0.0
04/09:00pm 11.0 6.4 -0.8 44 4.7 SW 13 19 7 10 - - 0.0
04/08:30pm 11.7 7.4 -1.4 40 5.2 SW 11 20 6 11 - - 0.0
04/08:00pm 12.1 7.6 -0.1 43 5.0 SSW 13 20 7 11 - - 0.0
04/07:30pm 11.5 8.8 2.8 55 3.8 W 6 11 3 6 - - 0.0
04/07:00pm 13.7 10.9 2.9 48 4.8 W 7 15 4 8 - - 0.0
04/06:30pm 14.9 10.6 3.1 45 5.3 NW 15 28 8 15 - - 0.0
04/06:00pm 15.4 11.8 2.9 43 5.7 WNW 11 20 6 11 - - 0.0
04/05:30pm 16.6 11.4 2.2 38 6.5 WNW 19 37 10 20 - - 0.0
04/05:00pm 17.5 12.6 1.9 35 7.0 WNW 17 32 9 17 - - 0.0
04/04:30pm 18.6 13.3 1.6 32 7.7 WNW 19 28 10 15 - - 0.0
04/04:00pm 19.6 14.3 2.0 31 8.1 WNW 19 33 10 18 - - 0.0
04/03:30pm 20.3 15.7 1.7 29 8.6 W 15 28 8 15 - - 0.0
04/03:00pm 20.7 15.4 2.0 29 8.7 W 19 32 10 17 - - 0.0
04/02:30pm 20.7 15.9 2.5 30 8.5 W 17 35 9 19 - - 0.0
04/02:00pm 19.4 16.8 4.0 36 7.4 NW 7 13 4 7 - - 0.0
04/01:30pm 18.9 15.1 3.9 37 7.1 NW 13 24 7 13 - - 0.0
04/01:00pm 18.8 14.9 3.4 36 7.2 NW 13 24 7 13 - - 0.0
04/12:30pm 18.6 14.2 2.9 35 7.3 NW 15 22 8 12 - - 0.0
04/12:00pm 19.1 15.7 4.1 37 7.2 NW 11 19 6 10 - - 0.0
04/11:30am 18.1 15.9 5.3 43 6.2 N 6 9 3 5 - - 0.0
04/11:00am 17.6 14.8 5.2 44 6.0 N 9 15 5 8 - - 0.0
04/10:30am 16.9 14.6 5.8 48 5.4 NNW 7 13 4 7 - - 0.0
04/10:00am 15.7 13.1 5.9 52 4.7 N 9 17 5 9 - - 0.0
04/09:30am 14.4 12.1 5.7 56 4.2 N 7 13 4 7 - - 0.0
04/09:00am 13.3 10.5 5.2 58 3.8 N 9 15 5 8 - - 0.0
04/08:30am 11.9 9.5 5.1 63 3.1 N 7 13 4 7 - - 0.0
04/08:00am 9.7 7.1 4.3 69 2.4 NW 7 15 4 8 - - 0.0
04/07:30am 8.2 5.5 3.7 73 1.9 NW 7 11 4 6 - - 0.0
04/07:00am 6.2 4.6 2.7 78 1.5 CALM 0 4 0 2 - - 0.0
04/06:30am 7.2 4.9 2.7 73 1.9 NNW 4 7 2 4 - - 0.0
04/06:00am 8.0 5.3 2.9 70 2.2 NW 6 11 3 6 - - 0.0
04/05:30am 8.5 5.3 3.1 69 2.3 NW 9 15 5 8 - - 0.0
04/05:00am 7.5 5.2 2.6 71 2.1 NW 4 7 2 4 - - 0.0
04/04:30am 7.2 4.9 2.7 73 1.9 NW 4 6 2 3 - - 0.0
04/04:00am 7.5 5.2 2.8 72 2.0 NW 4 6 2 3 - - 0.0
04/03:30am 8.0 6.2 3.3 72 2.0 NNW 2 6 1 3 - - 0.0
04/03:00am 8.5 6.3 3.1 69 2.3 NW 4 6 2 3 - - 0.0
04/02:30am 8.4 6.2 3.1 69 2.3 WNW 4 6 2 3 - - 0.0
04/02:00am 9.1 6.9 3.3 67 2.5 NW 4 7 2 4 - - 0.0
04/01:30am 8.2 5.9 2.7 68 2.3 NW 4 6 2 3 - - 0.0
04/01:00am 8.5 6.6 2.7 67 2.5 WNW 2 4 1 2 - - 0.0
04/12:30am 8.4 6.5 2.8 68 2.4 WNW 2 6 1 3 - - 0.0
04/12:00am 10.5 8.3 3.3 61 3.2 NNW 4 7 2 4 - - 0.0
 
Date/Time
EST
Temp
°C
App
Temp
°C
Dew
Point
°C
Rel
Hum
%
Delta-T
°C
Wind Press
QNH
hPa
Press
MSL
hPa
Rain since
9am
mm
Dir  Spd
km/h
Gust
km/h
Spd
kts
Gust
kts
03/11:30pm 9.9 8.5 3.4 64 2.8 CALM 0 0 0 0 - - 0.0
03/11:00pm 10.4 9.0 3.4 62 3.1 CALM 0 0 0 0 - - 0.0
03/10:30pm 10.8 9.5 4.0 63 3.0 CALM 0 0 0 0 - - 0.0
03/10:00pm 10.6 9.3 4.1 64 2.9 CALM 0 0 0 0 - - 0.0
03/09:30pm 10.3 9.2 4.9 69 2.4 CALM 0 0 0 0 - - 0.0
03/09:00pm 10.0 8.8 4.8 70 2.3 CALM 0 0 0 0 - - 0.0
03/08:30pm 11.2 9.6 4.7 64 3.0 NNE 2 4 1 2 - - 0.0
03/08:00pm 12.5 11.4 5.0 60 3.5 CALM 0 4 0 2 - - 0.0
03/07:30pm 13.4 11.3 5.6 59 3.7 SW 6 6 3 3 - - 0.0
03/07:00pm 14.1 12.4 5.7 57 4.0 W 4 6 2 3 - - 0.0
03/06:30pm 13.4 12.4 5.8 60 3.6 CALM 0 0 0 0 - - 0.0
03/06:00pm 13.9 13.1 6.3 60 3.7 CALM 0 0 0 0 - - 0.0
03/05:30pm 14.7 14.0 6.8 59 3.9 CALM 0 0 0 0 - - 0.0
03/05:00pm 16.7 15.0 5.9 49 5.3 WSW 4 9 2 5 - - 0.0
03/04:30pm 18.7 17.2 5.2 41 6.6 NW 2 4 1 2 - - 0.0
03/04:00pm 19.3 18.0 6.1 42 6.6 NW 2 4 1 2 - - 0.0
03/03:30pm 19.3 17.3 4.6 38 7.1 NW 4 7 2 4 - - 0.0
03/03:00pm 19.1 16.3 3.3 35 7.4 NNW 7 11 4 6 - - 0.0
03/02:30pm 19.7 17.3 4.2 36 7.5 N 6 11 3 6 - - 0.0
03/02:00pm 19.3 16.4 2.6 33 7.8 NNW 7 11 4 6 - - 0.0
03/01:30pm 18.6 16.3 4.8 40 6.7 NNW 6 9 3 5 - - 0.0
03/01:00pm 18.4 16.9 6.6 46 5.9 N 4 6 2 3 - - 0.0
03/12:30pm 16.6 14.9 6.1 50 5.1 NW 4 7 2 4 - - 0.0
03/12:00pm 16.3 14.8 7.0 54 4.6 N 4 7 2 4 - - 0.0
03/11:30am 14.8 13.1 7.6 62 3.6 NNW 6 9 3 5 - - 0.0
03/11:00am 14.1 13.0 8.3 68 2.9 NW 4 7 2 4 - - 0.0
03/10:30am 12.1 10.5 6.4 68 2.7 WNW 4 6 2 3 - - 0.0
03/10:00am 11.3 9.7 6.2 71 2.4 NW 4 7 2 4 - - 0.0
03/09:30am 10.8 9.5 6.2 73 2.2 NW 2 4 1 2 - - 0.0
03/09:00am 9.5 8.1 5.3 75 1.9 W 2 6 1 3 - - 0.0
03/08:30am 8.6 7.4 6.4 86 1.0 WNW 2 4 1 2 - - 0.0
03/08:00am 7.3 6.2 6.9 97 0.2 WNW 2 2 1 1 - - 0.0
03/07:30am 6.0 5.0 5.7 98 0.1 CALM 0 2 0 1 - - 0.0
03/07:00am 4.4 2.7 3.8 96 0.3 WSW 2 2 1 1 - - 0.0
03/06:30am 5.2 4.0 4.8 97 0.2 CALM 0 2 0 1 - - 0.0
03/06:00am 5.2 4.0 4.8 97 0.2 CALM 0 0 0 0 - - 0.0
03/05:30am 4.7 3.4 4.3 97 0.2 CALM 0 0 0 0 - - 0.0
03/05:00am 5.0 3.8 4.4 96 0.3 CALM 0 0 0 0 - - 0.0
03/04:30am 5.0 3.8 4.4 96 0.3 CALM 0 0 0 0 - - 0.0
03/04:00am 5.2 4.0 4.5 95 0.3 CALM 0 0 0 0 - - 0.0
03/03:30am 5.3 4.1 4.6 95 0.3 CALM 0 0 0 0 - - 0.0
03/03:00am 6.3 4.9 5.7 96 0.3 WSW 2 4 1 2 - - 0.0
03/02:30am 5.8 4.7 4.9 94 0.4 CALM 0 0 0 0 - - 0.0
03/02:00am 6.0 4.9 5.1 94 0.4 CALM 0 0 0 0 - - 0.0
03/01:30am 6.6 5.6 5.7 94 0.4 CALM 0 0 0 0 - - 0.0
03/01:00am 7.8 7.1 7.1 95 0.3 CALM 0 0 0 0 - - 0.0
03/12:30am 8.2 7.6 7.3 94 0.4 CALM 0 2 0 1 - - 0.0
03/12:00am 7.8 6.6 6.6 92 0.6 SW 2 2 1 1 - - 0.0
 
Date/Time
EST
Temp
°C
App
Temp
°C
Dew
Point
°C
Rel
Hum
%
Delta-T
°C
Wind Press
QNH
hPa
Press
MSL
hPa
Rain since
9am
mm
Dir  Spd
km/h
Gust
km/h
Spd
kts
Gust
kts
02/11:30pm 8.3 6.8 6.9 91 0.7 SW 4 7 2 4 - - 0.0
02/11:00pm 8.8 8.2 7.4 91 0.7 CALM 0 0 0 0 - - 0.0
02/10:30pm 9.2 8.6 7.6 90 0.8 CALM 0 0 0 0 - - 0.0
02/10:00pm 9.1 8.5 7.2 88 0.9 CALM 0 0 0 0 - - 0.0
02/09:30pm 10.6 10.1 8.0 84 1.3 CALM 0 0 0 0 - - 0.0

Other formats

Comma delimited format used in spreadsheet applications
http://www.bom.gov.au/fwo/IDN60801/IDN60801.94760.axf

JavaScript Object Notation format (JSON) in row-major order
http://www.bom.gov.au/fwo/IDN60801/IDN60801.94760.json

Data quality

Most of these data are generated automatically and are frequently updated. Quality checks on data are not normally performed. It is possible for incorrect values to appear. Refer to information at About Latest Weather Observations and please check the disclaimer before using these data.